ASA65 PAJN-PANC
Flight info
| Callsign | ASA65 |
|---|---|
| Flight time | 1h 29m |
| Altitude | 38000 |
| Route | ASORT2 ASORT JOH WITTI5 |
| Aircraft | B737/M-SDE2E3FGHIRWXY/LB1 |
Departure
| Time | 2026-04-17 20:23 |
|---|---|
| Airport | Juneau International Airport (PAJN) |
Arrival
| Time | 2026-04-17 21:52 |
|---|---|
| Airport | Ted Stevens Anchorage International Airport (PANC) |
| Time | Latitude | Longitude | Altitude | Speed | Heading |
|---|---|---|---|---|---|
| 2026-04-17 19:50 | 58.35873 | -134.58464 | -28 ft | 0 kts | 103° |
| 2026-04-17 20:13 | 58.35874 | -134.58469 | -28 ft | 2 kts | 103° |
| 2026-04-17 20:14 | 58.35876 | -134.58498 | -29 ft | 2 kts | 95° |
| 2026-04-17 20:14 | 58.35877 | -134.58525 | -29 ft | 2 kts | 90° |
| 2026-04-17 20:14 | 58.35877 | -134.58554 | -29 ft | 2 kts | 91° |
| 2026-04-17 20:14 | 58.35878 | -134.58578 | -29 ft | 0 kts | 91° |
| 2026-04-17 20:18 | 58.35865 | -134.58554 | -29 ft | 6 kts | 164° |
| 2026-04-17 20:18 | 58.35812 | -134.58569 | -30 ft | 7 kts | 208° |
| 2026-04-17 20:19 | 58.35768 | -134.58624 | -29 ft | 3 kts | 204° |
| 2026-04-17 20:19 | 58.35755 | -134.58697 | -29 ft | 9 kts | 275° |
| 2026-04-17 20:19 | 58.35771 | -134.58826 | -29 ft | 10 kts | 287° |
| 2026-04-17 20:19 | 58.35794 | -134.58969 | -29 ft | 11 kts | 285° |
| 2026-04-17 20:20 | 58.35816 | -134.59125 | -29 ft | 12 kts | 284° |
| 2026-04-17 20:20 | 58.35839 | -134.59291 | -28 ft | 13 kts | 284° |
| 2026-04-17 20:20 | 58.35862 | -134.59462 | -28 ft | 10 kts | 284° |
| 2026-04-17 20:20 | 58.35874 | -134.59554 | -29 ft | 8 kts | 276° |
| 2026-04-17 20:21 | 58.35873 | -134.59582 | -30 ft | 0 kts | 262° |
| 2026-04-17 20:21 | 58.35873 | -134.59592 | -30 ft | 2 kts | 258° |
| 2026-04-17 20:21 | 58.35847 | -134.59636 | -31 ft | 7 kts | 206° |
| 2026-04-17 20:21 | 58.35798 | -134.59670 | -30 ft | 5 kts | 188° |
| 2026-04-17 20:22 | 58.35777 | -134.59628 | -29 ft | 4 kts | 105° |
| 2026-04-17 20:22 | 58.35754 | -134.59479 | -28 ft | 34 kts | 107° |
| 2026-04-17 20:22 | 58.35635 | -134.58620 | -29 ft | 98 kts | 104° |
| 2026-04-17 20:22 | 58.35413 | -134.57027 | 51 ft | 141 kts | 105° |
| 2026-04-17 20:23 | 58.35189 | -134.55234 | 664 ft | 143 kts | 104° |
| 2026-04-17 20:23 | 58.34933 | -134.53485 | 1349 ft | 139 kts | 116° |
| 2026-04-17 20:23 | 58.34361 | -134.51916 | 1789 ft | 152 kts | 135° |
| 2026-04-17 20:23 | 58.33572 | -134.50482 | 2295 ft | 163 kts | 137° |
| 2026-04-17 20:24 | 58.32756 | -134.48949 | 2817 ft | 174 kts | 137° |
| 2026-04-17 20:24 | 58.31880 | -134.47275 | 3327 ft | 186 kts | 137° |
| 2026-04-17 20:24 | 58.30932 | -134.45493 | 3809 ft | 200 kts | 137° |
| 2026-04-17 20:24 | 58.29925 | -134.43526 | 4256 ft | 217 kts | 135° |
| 2026-04-17 20:25 | 58.28880 | -134.41324 | 4740 ft | 232 kts | 134° |
| 2026-04-17 20:25 | 58.27784 | -134.38998 | 5216 ft | 246 kts | 133° |
| 2026-04-17 20:25 | 58.26609 | -134.36522 | 5726 ft | 260 kts | 134° |
| 2026-04-17 20:25 | 58.25377 | -134.33954 | 6436 ft | 265 kts | 136° |
| 2026-04-17 20:26 | 58.24090 | -134.31474 | 7218 ft | 266 kts | 142° |
| 2026-04-17 20:26 | 58.22558 | -134.29594 | 8011 ft | 264 kts | 161° |
| 2026-04-17 20:26 | 58.20805 | -134.28964 | 8815 ft | 262 kts | 182° |
| 2026-04-17 20:26 | 58.19010 | -134.29311 | 9635 ft | 262 kts | 193° |
| 2026-04-17 20:27 | 58.17262 | -134.30203 | 10400 ft | 264 kts | 204° |
| 2026-04-17 20:27 | 58.15731 | -134.32130 | 11027 ft | 271 kts | 225° |
| 2026-04-17 20:27 | 58.14670 | -134.35060 | 11659 ft | 280 kts | 243° |
| 2026-04-17 20:27 | 58.14052 | -134.38586 | 12407 ft | 285 kts | 255° |
| 2026-04-17 20:28 | 58.13820 | -134.42323 | 13128 ft | 291 kts | 269° |
| 2026-04-17 20:28 | 58.14251 | -134.46060 | 13773 ft | 302 kts | 286° |
| 2026-04-17 20:28 | 58.15094 | -134.49742 | 14441 ft | 308 kts | 291° |
| 2026-04-17 20:28 | 58.15971 | -134.53401 | 15197 ft | 309 kts | 290° |
| 2026-04-17 20:29 | 58.16813 | -134.57126 | 15963 ft | 309 kts | 290° |
| 2026-04-17 20:29 | 58.17627 | -134.60884 | 16694 ft | 311 kts | 289° |
| 2026-04-17 20:29 | 58.18554 | -134.64594 | 17344 ft | 316 kts | 296° |
| 2026-04-17 20:29 | 58.19841 | -134.67967 | 17981 ft | 324 kts | 307° |
| 2026-04-17 20:30 | 58.23112 | -134.73990 | 19210 ft | 333 kts | 312° |
| 2026-04-17 20:30 | 58.24818 | -134.76959 | 19811 ft | 336 kts | 313° |
| 2026-04-17 20:30 | 58.26513 | -134.79947 | 20421 ft | 338 kts | 311° |
| 2026-04-17 20:31 | 58.28216 | -134.83005 | 20983 ft | 341 kts | 311° |
| 2026-04-17 20:31 | 58.29943 | -134.86121 | 21617 ft | 342 kts | 312° |
| 2026-04-17 20:31 | 58.31659 | -134.89223 | 22229 ft | 343 kts | 311° |
| 2026-04-17 20:31 | 58.33360 | -134.92305 | 22824 ft | 344 kts | 311° |
| 2026-04-17 20:32 | 58.35092 | -134.95451 | 23422 ft | 345 kts | 311° |
| 2026-04-17 20:32 | 58.36833 | -134.98599 | 23980 ft | 346 kts | 311° |
| 2026-04-17 20:32 | 58.38567 | -135.01726 | 24441 ft | 351 kts | 311° |
| 2026-04-17 20:32 | 58.40327 | -135.04941 | 24933 ft | 353 kts | 311° |
| 2026-04-17 20:33 | 58.42081 | -135.08212 | 25466 ft | 354 kts | 308° |
| 2026-04-17 20:33 | 58.43669 | -135.11787 | 25981 ft | 353 kts | 302° |
| 2026-04-17 20:33 | 58.45060 | -135.15573 | 26443 ft | 354 kts | 299° |
| 2026-04-17 20:33 | 58.46395 | -135.19524 | 26917 ft | 356 kts | 298° |
| 2026-04-17 20:34 | 58.47725 | -135.23532 | 27358 ft | 359 kts | 298° |
| 2026-04-17 20:34 | 58.49049 | -135.27539 | 27789 ft | 363 kts | 298° |
| 2026-04-17 20:34 | 58.50400 | -135.31615 | 28251 ft | 365 kts | 298° |
| 2026-04-17 20:34 | 58.51759 | -135.35712 | 28755 ft | 365 kts | 298° |
| 2026-04-17 20:35 | 58.53114 | -135.39800 | 29229 ft | 366 kts | 298° |
| 2026-04-17 20:35 | 58.54482 | -135.43922 | 29658 ft | 369 kts | 298° |
| 2026-04-17 20:35 | 58.55843 | -135.48027 | 30100 ft | 371 kts | 298° |
| 2026-04-17 20:35 | 58.57230 | -135.52219 | 30480 ft | 375 kts | 298° |
| 2026-04-17 20:36 | 58.58630 | -135.56459 | 30895 ft | 377 kts | 299° |
| 2026-04-17 20:36 | 58.60024 | -135.60683 | 31305 ft | 379 kts | 299° |
| 2026-04-17 20:36 | 58.61442 | -135.64984 | 31699 ft | 380 kts | 299° |
| 2026-04-17 20:36 | 58.62853 | -135.69278 | 32075 ft | 382 kts | 298° |
| 2026-04-17 20:37 | 58.64285 | -135.73644 | 32448 ft | 384 kts | 298° |
| 2026-04-17 20:37 | 58.65699 | -135.77965 | 32766 ft | 388 kts | 298° |
| 2026-04-17 20:37 | 58.67142 | -135.82385 | 33119 ft | 390 kts | 298° |
| 2026-04-17 20:37 | 58.68595 | -135.86844 | 33486 ft | 392 kts | 298° |
| 2026-04-17 20:38 | 58.70062 | -135.91348 | 33823 ft | 394 kts | 298° |
| 2026-04-17 20:38 | 58.71544 | -135.95912 | 34161 ft | 396 kts | 298° |
| 2026-04-17 20:38 | 58.73016 | -136.00452 | 34499 ft | 398 kts | 298° |
| 2026-04-17 20:38 | 58.74495 | -136.05023 | 34795 ft | 400 kts | 298° |
| 2026-04-17 20:39 | 58.75977 | -136.09615 | 35067 ft | 403 kts | 298° |
| 2026-04-17 20:39 | 58.77457 | -136.14208 | 35334 ft | 405 kts | 298° |
| 2026-04-17 20:39 | 58.78954 | -136.18860 | 35568 ft | 408 kts | 298° |
| 2026-04-17 20:39 | 58.80460 | -136.23550 | 35830 ft | 410 kts | 298° |
| 2026-04-17 20:40 | 58.81967 | -136.28255 | 36083 ft | 412 kts | 298° |
| 2026-04-17 20:40 | 58.83473 | -136.32962 | 36276 ft | 416 kts | 298° |
| 2026-04-17 20:40 | 58.85000 | -136.37743 | 36527 ft | 417 kts | 298° |
| 2026-04-17 20:40 | 58.86535 | -136.42561 | 36738 ft | 420 kts | 298° |
| 2026-04-17 20:41 | 58.88041 | -136.47295 | 37055 ft | 419 kts | 298° |
| 2026-04-17 20:41 | 58.89568 | -136.52104 | 37364 ft | 419 kts | 298° |
| 2026-04-17 20:41 | 58.91072 | -136.56850 | 37623 ft | 420 kts | 298° |
| 2026-04-17 20:41 | 58.92594 | -136.61667 | 37858 ft | 421 kts | 298° |
| 2026-04-17 20:42 | 58.94124 | -136.66518 | 38022 ft | 423 kts | 297° |
| 2026-04-17 20:42 | 58.95644 | -136.71347 | 38027 ft | 424 kts | 297° |
| 2026-04-17 20:42 | 58.98683 | -136.81026 | 38013 ft | 419 kts | 297° |
| 2026-04-17 20:43 | 59.01711 | -136.90712 | 38067 ft | 420 kts | 297° |
| 2026-04-17 20:43 | 59.04733 | -137.00424 | 38071 ft | 419 kts | 297° |
| 2026-04-17 20:44 | 59.07727 | -137.10086 | 38012 ft | 420 kts | 297° |
| 2026-04-17 20:44 | 59.10717 | -137.19774 | 37917 ft | 419 kts | 297° |
| 2026-04-17 20:45 | 59.13707 | -137.29506 | 37909 ft | 421 kts | 297° |
| 2026-04-17 20:45 | 59.16711 | -137.39322 | 37889 ft | 422 kts | 297° |
| 2026-04-17 20:46 | 59.19705 | -137.49147 | 37870 ft | 422 kts | 297° |
| 2026-04-17 20:46 | 59.22665 | -137.58899 | 37907 ft | 421 kts | 297° |
| 2026-04-17 20:47 | 59.25651 | -137.68782 | 37880 ft | 421 kts | 296° |
| 2026-04-17 20:47 | 59.28600 | -137.78580 | 37877 ft | 420 kts | 296° |
| 2026-04-17 20:48 | 59.31539 | -137.88390 | 37906 ft | 422 kts | 296° |
| 2026-04-17 20:48 | 59.34501 | -137.98320 | 37940 ft | 425 kts | 296° |
| 2026-04-17 20:49 | 59.37455 | -138.08260 | 37962 ft | 423 kts | 296° |
| 2026-04-17 20:49 | 59.40395 | -138.18242 | 37967 ft | 423 kts | 295° |
| 2026-04-17 20:50 | 59.42860 | -138.28545 | 37952 ft | 419 kts | 288° |
| 2026-04-17 20:50 | 59.44683 | -138.39420 | 37974 ft | 420 kts | 284° |
| 2026-04-17 20:51 | 59.46413 | -138.50342 | 37994 ft | 420 kts | 284° |
| 2026-04-17 20:51 | 59.48152 | -138.61281 | 38008 ft | 422 kts | 285° |
| 2026-04-17 20:52 | 59.49889 | -138.72220 | 37980 ft | 421 kts | 284° |
| 2026-04-17 20:52 | 59.51628 | -138.83208 | 37974 ft | 421 kts | 284° |
| 2026-04-17 20:53 | 59.53354 | -138.94173 | 37984 ft | 421 kts | 284° |
| 2026-04-17 20:53 | 59.55070 | -139.05148 | 37985 ft | 420 kts | 284° |
| 2026-04-17 20:54 | 59.56780 | -139.16156 | 38002 ft | 422 kts | 284° |
| 2026-04-17 20:54 | 59.58487 | -139.27212 | 38018 ft | 423 kts | 284° |
| 2026-04-17 20:55 | 59.60185 | -139.38284 | 38025 ft | 424 kts | 284° |
| 2026-04-17 20:55 | 59.61876 | -139.49381 | 38030 ft | 423 kts | 284° |
| 2026-04-17 20:56 | 59.63555 | -139.60466 | 38040 ft | 424 kts | 284° |
| 2026-04-17 20:56 | 59.65234 | -139.71635 | 38064 ft | 424 kts | 283° |
| 2026-04-17 20:57 | 59.66902 | -139.82805 | 38086 ft | 425 kts | 283° |
| 2026-04-17 20:57 | 59.68560 | -139.93976 | 38083 ft | 424 kts | 283° |
| 2026-04-17 20:58 | 59.70210 | -140.05141 | 38081 ft | 424 kts | 283° |
| 2026-04-17 20:58 | 59.71843 | -140.16303 | 38080 ft | 425 kts | 283° |
| 2026-04-17 20:59 | 59.73481 | -140.27539 | 38077 ft | 425 kts | 283° |
| 2026-04-17 20:59 | 59.75104 | -140.38766 | 38069 ft | 425 kts | 283° |
| 2026-04-17 21:00 | 59.76723 | -140.50021 | 38061 ft | 425 kts | 283° |
| 2026-04-17 21:00 | 59.78318 | -140.61230 | 38053 ft | 426 kts | 283° |
| 2026-04-17 21:01 | 59.79914 | -140.72534 | 38043 ft | 424 kts | 282° |
| 2026-04-17 21:01 | 59.81484 | -140.83728 | 38045 ft | 426 kts | 282° |
| 2026-04-17 21:02 | 59.83064 | -140.95067 | 38046 ft | 425 kts | 282° |
| 2026-04-17 21:02 | 59.84619 | -141.06293 | 38042 ft | 424 kts | 282° |
| 2026-04-17 21:03 | 59.86168 | -141.17560 | 38049 ft | 424 kts | 282° |
| 2026-04-17 21:03 | 59.87711 | -141.28860 | 38053 ft | 425 kts | 282° |
| 2026-04-17 21:04 | 59.89242 | -141.40149 | 38055 ft | 425 kts | 282° |
| 2026-04-17 21:04 | 59.90770 | -141.51497 | 38053 ft | 426 kts | 282° |
| 2026-04-17 21:05 | 59.92286 | -141.62851 | 38054 ft | 425 kts | 282° |
| 2026-04-17 21:05 | 59.93791 | -141.74191 | 38043 ft | 426 kts | 281° |
| 2026-04-17 21:06 | 59.95286 | -141.85547 | 38040 ft | 427 kts | 281° |
| 2026-04-17 21:06 | 59.96782 | -141.96997 | 38042 ft | 427 kts | 281° |
| 2026-04-17 21:07 | 59.98260 | -142.08385 | 38030 ft | 427 kts | 281° |
| 2026-04-17 21:07 | 59.99735 | -142.19849 | 38015 ft | 429 kts | 281° |
| 2026-04-17 21:08 | 60.01203 | -142.31354 | 38000 ft | 430 kts | 281° |
| 2026-04-17 21:08 | 60.02664 | -142.42874 | 37995 ft | 429 kts | 281° |
| 2026-04-17 21:09 | 60.04121 | -142.54448 | 37990 ft | 431 kts | 281° |
| 2026-04-17 21:09 | 60.05561 | -142.65982 | 37985 ft | 430 kts | 281° |
| 2026-04-17 21:10 | 60.06991 | -142.77534 | 37977 ft | 430 kts | 281° |
| 2026-04-17 21:10 | 60.08419 | -142.89160 | 37967 ft | 430 kts | 281° |
| 2026-04-17 21:11 | 60.09827 | -143.00722 | 37951 ft | 430 kts | 281° |
| 2026-04-17 21:11 | 60.11228 | -143.12302 | 37954 ft | 432 kts | 281° |
| 2026-04-17 21:12 | 60.12625 | -143.23947 | 37954 ft | 432 kts | 281° |
| 2026-04-17 21:12 | 60.14013 | -143.35637 | 37962 ft | 432 kts | 281° |
| 2026-04-17 21:13 | 60.15391 | -143.47302 | 37953 ft | 433 kts | 281° |
| 2026-04-17 21:13 | 60.16766 | -143.59029 | 37940 ft | 433 kts | 281° |
| 2026-04-17 21:14 | 60.18118 | -143.70735 | 37932 ft | 432 kts | 280° |
| 2026-04-17 21:14 | 60.19466 | -143.82515 | 37935 ft | 433 kts | 280° |
| 2026-04-17 21:15 | 60.20806 | -143.94237 | 37919 ft | 433 kts | 280° |
| 2026-04-17 21:15 | 60.22144 | -144.06021 | 37933 ft | 434 kts | 280° |
| 2026-04-17 21:16 | 60.23467 | -144.17784 | 37941 ft | 435 kts | 280° |
| 2026-04-17 21:16 | 60.24784 | -144.29637 | 37931 ft | 434 kts | 280° |
| 2026-04-17 21:17 | 60.26082 | -144.41429 | 37926 ft | 435 kts | 280° |
| 2026-04-17 21:17 | 60.27377 | -144.53273 | 37918 ft | 435 kts | 280° |
| 2026-04-17 21:18 | 60.28664 | -144.65173 | 37928 ft | 434 kts | 279° |
| 2026-04-17 21:18 | 60.29930 | -144.76991 | 37945 ft | 434 kts | 279° |
| 2026-04-17 21:19 | 60.31197 | -144.88901 | 37948 ft | 434 kts | 279° |
| 2026-04-17 21:19 | 60.32437 | -145.00709 | 37944 ft | 433 kts | 279° |
| 2026-04-17 21:20 | 60.33669 | -145.12604 | 37929 ft | 435 kts | 279° |
| 2026-04-17 21:20 | 60.34896 | -145.24501 | 37919 ft | 436 kts | 279° |
| 2026-04-17 21:21 | 60.36122 | -145.36409 | 37922 ft | 435 kts | 279° |
| 2026-04-17 21:21 | 60.37340 | -145.48337 | 37933 ft | 436 kts | 279° |
| 2026-04-17 21:22 | 60.38532 | -145.60243 | 37926 ft | 434 kts | 279° |
| 2026-04-17 21:22 | 60.39708 | -145.72113 | 37901 ft | 434 kts | 279° |
| 2026-04-17 21:23 | 60.40889 | -145.84068 | 37890 ft | 435 kts | 279° |
| 2026-04-17 21:23 | 60.42051 | -145.96039 | 37894 ft | 437 kts | 279° |
| 2026-04-17 21:24 | 60.43215 | -146.08067 | 37906 ft | 435 kts | 279° |
| 2026-04-17 21:24 | 60.44370 | -146.20016 | 37891 ft | 437 kts | 279° |
| 2026-04-17 21:25 | 60.45507 | -146.32077 | 37888 ft | 437 kts | 279° |
| 2026-04-17 21:25 | 60.46631 | -146.44115 | 37890 ft | 437 kts | 279° |
| 2026-04-17 21:26 | 60.47754 | -146.56113 | 37891 ft | 438 kts | 281° |
| 2026-04-17 21:26 | 60.49359 | -146.68019 | 37898 ft | 439 kts | 285° |
| 2026-04-17 21:27 | 60.51276 | -146.79709 | 37900 ft | 439 kts | 287° |
| 2026-04-17 21:27 | 60.53243 | -146.91403 | 37904 ft | 440 kts | 287° |
| 2026-04-17 21:28 | 60.55182 | -147.03110 | 37860 ft | 442 kts | 286° |
| 2026-04-17 21:28 | 60.56142 | -147.08995 | 37643 ft | 442 kts | 286° |
| 2026-04-17 21:28 | 60.57111 | -147.14937 | 37419 ft | 439 kts | 286° |
| 2026-04-17 21:29 | 60.58050 | -147.20738 | 36992 ft | 438 kts | 285° |
| 2026-04-17 21:29 | 60.58993 | -147.26592 | 36426 ft | 440 kts | 284° |
| 2026-04-17 21:29 | 60.59942 | -147.32487 | 35975 ft | 437 kts | 284° |
| 2026-04-17 21:29 | 60.60874 | -147.38295 | 35649 ft | 430 kts | 284° |
| 2026-04-17 21:30 | 60.61783 | -147.43991 | 35260 ft | 426 kts | 283° |
| 2026-04-17 21:30 | 60.62692 | -147.49715 | 34672 ft | 427 kts | 283° |
| 2026-04-17 21:30 | 60.63598 | -147.55431 | 34074 ft | 428 kts | 282° |
| 2026-04-17 21:30 | 60.64524 | -147.61308 | 33532 ft | 430 kts | 281° |
| 2026-04-17 21:31 | 60.65448 | -147.67200 | 33031 ft | 430 kts | 279° |
| 2026-04-17 21:31 | 60.66377 | -147.73123 | 32553 ft | 430 kts | 278° |
| 2026-04-17 21:31 | 60.67282 | -147.78917 | 32073 ft | 429 kts | 278° |
| 2026-04-17 21:31 | 60.68185 | -147.84708 | 31642 ft | 426 kts | 277° |
| 2026-04-17 21:32 | 60.69073 | -147.90401 | 31168 ft | 419 kts | 276° |
| 2026-04-17 21:32 | 60.69949 | -147.96013 | 30427 ft | 413 kts | 276° |
| 2026-04-17 21:32 | 60.70800 | -148.01504 | 29626 ft | 407 kts | 276° |
| 2026-04-17 21:32 | 60.71653 | -148.07045 | 28765 ft | 403 kts | 276° |
| 2026-04-17 21:33 | 60.72479 | -148.12439 | 27939 ft | 399 kts | 277° |
| 2026-04-17 21:33 | 60.73307 | -148.17871 | 27028 ft | 396 kts | 277° |
| 2026-04-17 21:33 | 60.74119 | -148.23227 | 26147 ft | 394 kts | 277° |
| 2026-04-17 21:33 | 60.74915 | -148.28507 | 25457 ft | 386 kts | 276° |
| 2026-04-17 21:34 | 60.75711 | -148.33678 | 24777 ft | 381 kts | 278° |
| 2026-04-17 21:34 | 60.76521 | -148.38820 | 23931 ft | 379 kts | 277° |
| 2026-04-17 21:34 | 60.78025 | -148.49052 | 22322 ft | 374 kts | 277° |
| 2026-04-17 21:35 | 60.78755 | -148.54088 | 21778 ft | 366 kts | 278° |
| 2026-04-17 21:35 | 60.79465 | -148.58986 | 21251 ft | 364 kts | 278° |
| 2026-04-17 21:35 | 60.80184 | -148.63982 | 20707 ft | 368 kts | 278° |
| 2026-04-17 21:35 | 60.80904 | -148.68959 | 20141 ft | 362 kts | 279° |
| 2026-04-17 21:36 | 60.81614 | -148.73857 | 19591 ft | 355 kts | 279° |
| 2026-04-17 21:36 | 60.82315 | -148.78661 | 19061 ft | 354 kts | 279° |
| 2026-04-17 21:36 | 60.83012 | -148.83435 | 18542 ft | 356 kts | 280° |
| 2026-04-17 21:36 | 60.83718 | -148.88310 | 18035 ft | 353 kts | 281° |
| 2026-04-17 21:37 | 60.84409 | -148.93091 | 17517 ft | 350 kts | 281° |
| 2026-04-17 21:37 | 60.85093 | -148.97823 | 17022 ft | 346 kts | 281° |
| 2026-04-17 21:37 | 60.85759 | -149.02493 | 16539 ft | 345 kts | 281° |
| 2026-04-17 21:37 | 60.86439 | -149.07289 | 16035 ft | 352 kts | 282° |
| 2026-04-17 21:38 | 60.87122 | -149.12094 | 15510 ft | 349 kts | 282° |
| 2026-04-17 21:38 | 60.87805 | -149.16878 | 14980 ft | 346 kts | 283° |
| 2026-04-17 21:38 | 60.88506 | -149.21584 | 14469 ft | 344 kts | 286° |
| 2026-04-17 21:38 | 60.89360 | -149.26152 | 13960 ft | 343 kts | 291° |
| 2026-04-17 21:39 | 60.90346 | -149.30522 | 13466 ft | 341 kts | 294° |
| 2026-04-17 21:39 | 60.91384 | -149.34878 | 12980 ft | 338 kts | 294° |
| 2026-04-17 21:39 | 60.92398 | -149.39143 | 12521 ft | 335 kts | 294° |
| 2026-04-17 21:39 | 60.93406 | -149.43443 | 12054 ft | 332 kts | 294° |
| 2026-04-17 21:40 | 60.94397 | -149.47739 | 11600 ft | 334 kts | 294° |
| 2026-04-17 21:40 | 60.95374 | -149.52025 | 11110 ft | 337 kts | 294° |
| 2026-04-17 21:40 | 60.96355 | -149.56345 | 10664 ft | 333 kts | 294° |
| 2026-04-17 21:40 | 60.97321 | -149.60614 | 10389 ft | 324 kts | 294° |
| 2026-04-17 21:41 | 60.98252 | -149.64745 | 10272 ft | 311 kts | 294° |
| 2026-04-17 21:41 | 60.99134 | -149.68666 | 10160 ft | 299 kts | 292° |
| 2026-04-17 21:41 | 61.00016 | -149.72478 | 9909 ft | 293 kts | 296° |
| 2026-04-17 21:41 | 61.01146 | -149.75937 | 9533 ft | 293 kts | 310° |
| 2026-04-17 21:42 | 61.02596 | -149.78894 | 9179 ft | 291 kts | 317° |
| 2026-04-17 21:42 | 61.04120 | -149.81624 | 8829 ft | 289 kts | 319° |
| 2026-04-17 21:42 | 61.05611 | -149.84291 | 8494 ft | 286 kts | 318° |
| 2026-04-17 21:42 | 61.07089 | -149.87021 | 8159 ft | 284 kts | 317° |
| 2026-04-17 21:43 | 61.08544 | -149.89783 | 7825 ft | 282 kts | 316° |
| 2026-04-17 21:43 | 61.09856 | -149.92725 | 7497 ft | 279 kts | 305° |
| 2026-04-17 21:43 | 61.10631 | -149.96313 | 7169 ft | 274 kts | 278° |
| 2026-04-17 21:43 | 61.10698 | -150.00191 | 6854 ft | 270 kts | 266° |
| 2026-04-17 21:44 | 61.10576 | -150.04034 | 6515 ft | 269 kts | 265° |
| 2026-04-17 21:44 | 61.10464 | -150.07860 | 6183 ft | 267 kts | 266° |
| 2026-04-17 21:44 | 61.10393 | -150.11670 | 5861 ft | 266 kts | 267° |
| 2026-04-17 21:44 | 61.10344 | -150.15480 | 5536 ft | 265 kts | 268° |
| 2026-04-17 21:45 | 61.10301 | -150.19244 | 5262 ft | 261 kts | 268° |
| 2026-04-17 21:45 | 61.10258 | -150.22935 | 5154 ft | 252 kts | 267° |
| 2026-04-17 21:45 | 61.10215 | -150.26450 | 5078 ft | 239 kts | 267° |
| 2026-04-17 21:45 | 61.10172 | -150.29797 | 5007 ft | 228 kts | 267° |
| 2026-04-17 21:46 | 61.10120 | -150.33057 | 4992 ft | 227 kts | 266° |
| 2026-04-17 21:46 | 61.10033 | -150.36311 | 4972 ft | 228 kts | 265° |
| 2026-04-17 21:46 | 61.09963 | -150.39566 | 4727 ft | 230 kts | 272° |
| 2026-04-17 21:46 | 61.10500 | -150.42627 | 4490 ft | 231 kts | 311° |
| 2026-04-17 21:47 | 61.11840 | -150.44292 | 4213 ft | 229 kts | 349° |
| 2026-04-17 21:47 | 61.13418 | -150.44608 | 3852 ft | 233 kts | 359° |
| 2026-04-17 21:47 | 61.15039 | -150.44244 | 3318 ft | 240 kts | 24° |
| 2026-04-17 21:47 | 61.16288 | -150.42104 | 2845 ft | 236 kts | 58° |
| 2026-04-17 21:48 | 61.16916 | -150.39082 | 2694 ft | 222 kts | 81° |
| 2026-04-17 21:48 | 61.16822 | -150.36032 | 2549 ft | 210 kts | 101° |
| 2026-04-17 21:48 | 61.16667 | -150.33092 | 2396 ft | 200 kts | 92° |
| 2026-04-17 21:48 | 61.16699 | -150.30273 | 2244 ft | 191 kts | 88° |
| 2026-04-17 21:49 | 61.16732 | -150.27606 | 2061 ft | 184 kts | 89° |
| 2026-04-17 21:49 | 61.16737 | -150.25001 | 1892 ft | 177 kts | 89° |
| 2026-04-17 21:49 | 61.16742 | -150.22510 | 1763 ft | 172 kts | 89° |
| 2026-04-17 21:49 | 61.16750 | -150.20076 | 1624 ft | 168 kts | 89° |
| 2026-04-17 21:50 | 61.16755 | -150.17737 | 1578 ft | 152 kts | 89° |
| 2026-04-17 21:50 | 61.16761 | -150.15587 | 1341 ft | 148 kts | 89° |
| 2026-04-17 21:50 | 61.16765 | -150.13528 | 1095 ft | 139 kts | 89° |
| 2026-04-17 21:50 | 61.16769 | -150.11598 | 915 ft | 129 kts | 89° |
| 2026-04-17 21:51 | 61.16772 | -150.09761 | 741 ft | 129 kts | 89° |
| 2026-04-17 21:51 | 61.16775 | -150.07892 | 581 ft | 130 kts | 89° |
| 2026-04-17 21:51 | 61.16775 | -150.06021 | 415 ft | 131 kts | 89° |
| 2026-04-17 21:51 | 61.16780 | -150.04097 | 188 ft | 134 kts | 88° |
| 2026-04-17 21:52 | 61.16783 | -150.02393 | 161 ft | 93 kts | 89° |
| 2026-04-17 21:52 | 61.16784 | -150.01457 | 160 ft | 47 kts | 90° |
| 2026-04-17 21:52 | 61.16786 | -150.00963 | 160 ft | 24 kts | 88° |
| 2026-04-17 21:52 | 61.16831 | -150.00797 | 160 ft | 10 kts | 12° |
| 2026-04-17 21:53 | 61.16906 | -150.00792 | 160 ft | 11 kts | 358° |
| 2026-04-17 21:53 | 61.17004 | -150.00794 | 160 ft | 15 kts | 357° |
| 2026-04-17 21:53 | 61.17102 | -150.00786 | 160 ft | 12 kts | 25° |
| 2026-04-17 21:53 | 61.17128 | -150.00624 | 160 ft | 13 kts | 88° |
| 2026-04-17 21:54 | 61.17126 | -150.00423 | 160 ft | 15 kts | 92° |
| 2026-04-17 21:54 | 61.17125 | -150.00166 | 160 ft | 18 kts | 90° |
| 2026-04-17 21:54 | 61.17128 | -149.99889 | 160 ft | 19 kts | 89° |
| 2026-04-17 21:54 | 61.17128 | -149.99597 | 160 ft | 20 kts | 92° |
| 2026-04-17 21:55 | 61.17125 | -149.99286 | 160 ft | 21 kts | 91° |
| 2026-04-17 21:55 | 61.17138 | -149.99030 | 160 ft | 15 kts | 58° |
| 2026-04-17 21:55 | 61.17216 | -149.98860 | 160 ft | 16 kts | 44° |
| 2026-04-17 21:55 | 61.17308 | -149.98718 | 160 ft | 15 kts | 32° |
| 2026-04-17 21:56 | 61.17365 | -149.98633 | 160 ft | 10 kts | 58° |
| 2026-04-17 21:56 | 61.17360 | -149.98492 | 160 ft | 9 kts | 126° |
| 2026-04-17 21:56 | 61.17331 | -149.98433 | 160 ft | 4 kts | 134° |
| 2026-04-17 21:56 | 61.17324 | -149.98419 | 160 ft | 0 kts | 134° |